Terminal Aerodrome Forecast
Issued by NWS

Home | Current Version | Previous Version | Text Only | Print | Product List | Glossary On
Versions: 1 2 3 4 5 6 7 8 9 10 11 12 13
834
FTAK31 PAJN 220531
TAFAGY
TAF
PAGY 220531Z 2206/2306 20012KT P6SM -RA SCT045 OVC060
     FM221200 21006KT P6SM -SHRA SCT025 OVC040
     FM221800 21014G24KT P6SM VCSH BKN050 OVC070
      AMD LTD TO CLD VIS AND WIND=

USA.gov is the U.S. government's official web portal to all federal, state and local government web resources and services.